Bernalillo, NM (87004)

11:00 AM MST on February 14, 2016 (GMT -0700)
Villas de las Huertas | | Change Station
CLOSE
Current Station
Personal Weather Station
Location: Placitas, NM
Elevation: 6290 ft
Nearby Weather Stations

Elev 6290 ft 35.30 °N, 106.41 °W | Updated 9 minutes ago

Clear
Clear
50.1 °F
Feels Like 50.1 °F
N
10.0
Wind Variable Wind from NW
Gusts 25.0 mph

Today
High -- | Low -- °F
--% Chance of Precip.
Yesterday
High -- | Low -- °F
Precip. -- in
Pressure 30.00 in
Visibility 10.0 miles
Clouds Scattered Clouds 25000 ft
Dew Point 24 °F
Humidity 35%
Rainfall 0.00 in
Snow Depth Not available.
6:53 AM 5:46 PM
Waxing Crescent, 44% visible
METAR KABQ 141752Z 30004KT 10SM SCT250 14/M08 A3012 RMK AO2 SLP158 T01391083 10139 20011 58004 $
Pressure 30.00 in
Visibility 10.0 miles
Clouds Scattered Clouds 25000 ft
Dew Point 24 °F
Humidity 35%
Rainfall 0.00 in
Snow Depth Not available.
6:53 AM 5:46 PM
Waxing Crescent, 44% visible
METAR KABQ 141752Z 30004KT 10SM SCT250 14/M08 A3012 RMK AO2 SLP158 T01391083 10139 20011 58004 $

10-Day Weather Forecast

Almanac

Astronomy

Feb. 14, 2016 Rise Set
Actual Time
Civil Twilight
Nautical Twilight
Astronomical Twilight
Moon
Length of Visible Light
Length of Day
Tomorrow will be .
, % of the Moon is Illuminated

Today's Extremes

State Highs State Lows

Community

WunderPhotos

Upload Photos

1,892,860 photos uploaded!

WunderBlog® & News

Nearby

Air Quality

  Air Quality AQ Index Pollutant
Not available.

Snow Depth

Station Depth Elevation

Earthquake Activity

City Distance Mag. Time & Date
Minimum magnitude displayed is 2.5.

Coastal Water Temperatures

Place Temperature

Stations

Nearby Weather Stations

Station Location Temp. Windchill Dew Point Humidity Wind Precip. Elev Updated Type
                   

Watches & Warnings

There are currently no watches in effect.